Edmonton International Airport
CYEG : now visible

Airfield :











YOU CAN JOIN US ON...

 
LOGIN :

Register | Disclaimer

   EN    FR    IT 

 









Legend :    VFR   Marginal VFR   IFR   Intensive IFR   Very Intensive IFR
Visi :
Ceiling :
>= 8 km
>= 3000ft
5 to 8 km
1000 to 3000 ft
1500m to 5 km
500 to 1000 ft
800 to 1500m
200 to 500 ft
< 800m
< 200 ft
Symbols :   Thunderstorms  Fog  Heavy snow  Heavy precipitations  Wind > 20 kt






- Airport Elevation : 2373 ft
- IATA code : YEG


CYEG - Edmonton International

CURRENT METAR :
  • 041100Z 29004KT 20SM BKN082 BKN250 12/11 A2994 RMK AC7CI1 CI TR SLP144 DENSITY ALT 2500FT

EXPIRED METARs :
  • 041000Z CCA 35003KT 20SM FEW060TCU BKN130 BKN250 12/10 A2993 RMK TCU2AC4CI1 SLP139 DENSITY ALT 2600FT
  • 040900Z 01006KT 20SM FEW060CB BKN130 OVC220 12/10 A2992 RMK CB1AC5CS2 SLP137 DENSITY ALT 2700FT

TAF TAF CYEG
Valid from the 04 at 09:00 until the 05 at 06:00 UTC


040838Z 0409/0506 36010KT P6SM FEW060 BKN120
TEMPO 0409/0412 P6SM -SHRA BKN060
FM041200 26010KT P6SM SCT050 SCT120
BECMG 0412/0414 28008KT
FM042000 28012KT P6SM BKN080
TEMPO 0420/0506 P6SM -SHRA
PROB40 0421/0506 VRB20G30KT 3SM TSRA BR OVC060CB RMK NXT FCST BY 041200Z
CZEG FIR / North America



MET'MAP, your aeronautical weather chart ! - Copyright ORBIFLY December 2007 - Disclaimer

ORBIFLY MET'MAP TEAM :

Programming & Development : Alexandra Zaïnal
Concept & original design : Baudouin d'Aumeries
Assistance for programming : Marc-Olivier Méhu
Technical & hardware support : Manuel Goepfert

Contact : metmap@orbifly.com




SOURCES & CREDITS :

   NOAA       Earth
Advisory